createdAt,value
2022-08-03T00:02:56.251Z,23.00
2022-08-03T00:06:03.831Z,23.50
2022-08-03T00:09:08.578Z,23.00
2022-08-03T00:12:13.710Z,24.00
2022-08-03T00:15:17.217Z,23.00
2022-08-03T00:18:21.181Z,23.00
2022-08-03T00:21:24.538Z,23.00
2022-08-03T00:24:27.808Z,24.00
2022-08-03T00:27:32.863Z,23.00
2022-08-03T00:30:39.495Z,22.00
2022-08-03T00:33:59.221Z,24.00
2022-08-03T00:37:03.155Z,24.00
2022-08-03T00:40:08.033Z,25.00
2022-08-03T00:43:13.055Z,22.25
2022-08-03T00:46:20.860Z,23.60
2022-08-03T00:49:25.311Z,24.25
2022-08-03T00:52:28.635Z,23.00
2022-08-03T00:55:32.541Z,23.00
2022-08-03T00:58:37.570Z,23.00
2022-08-03T01:01:41.827Z,22.60
2022-08-03T01:04:45.137Z,23.00
2022-08-03T01:08:01.489Z,22.00
2022-08-03T01:11:11.426Z,23.00
2022-08-03T01:14:22.153Z,24.00
2022-08-03T01:17:35.689Z,23.00
2022-08-03T01:20:43.993Z,23.80
2022-08-03T01:24:08.018Z,23.00
2022-08-03T01:27:16.012Z,25.60
2022-08-03T01:30:21.019Z,24.00
2022-08-03T01:33:32.768Z,24.00
2022-08-03T01:36:40.786Z,25.40
2022-08-03T01:39:46.352Z,24.00
2022-08-03T01:42:52.299Z,22.60
2022-08-03T01:45:58.403Z,25.00
2022-08-03T01:49:09.446Z,24.00
2022-08-03T01:52:18.403Z,23.00
2022-08-03T01:55:27.462Z,24.00
2022-08-03T01:58:32.321Z,24.00
2022-08-03T02:02:32.270Z,24.25
2022-08-03T02:05:04.929Z,23.00
2022-08-03T02:08:12.254Z,24.00
2022-08-03T02:11:15.950Z,23.75
2022-08-03T02:14:22.360Z,25.00
2022-08-03T02:17:39.710Z,23.40
2022-08-03T02:20:45.632Z,24.00
2022-08-03T02:23:48.949Z,23.80
2022-08-03T02:26:55.270Z,24.00
2022-08-03T02:30:04.387Z,25.40
2022-08-03T02:33:13.688Z,26.00
2022-08-03T02:36:21.213Z,25.60
2022-08-03T02:39:27.275Z,26.00
2022-08-03T02:42:33.200Z,24.00
2022-08-03T02:45:45.506Z,25.40
2022-08-03T02:48:53.303Z,25.00
2022-08-03T02:51:57.833Z,24.20
2022-08-03T02:55:03.714Z,26.00
2022-08-03T02:58:08.841Z,24.60
2022-08-03T03:01:14.042Z,20.80
2022-08-03T03:04:20.943Z,24.00
2022-08-03T03:07:29.444Z,23.00
2022-08-03T03:10:38.991Z,26.00
2022-08-03T03:13:43.834Z,26.00
2022-08-03T03:16:50.666Z,25.25
2022-08-03T03:19:57.784Z,24.00
2022-08-03T03:23:02.123Z,24.40
2022-08-03T03:26:07.613Z,24.75
2022-08-03T03:29:11.348Z,28.00
2022-08-03T03:32:15.084Z,26.00
2022-08-03T03:35:19.893Z,26.40
2022-08-03T03:38:23.266Z,27.00
2022-08-03T03:41:26.763Z,18.80
2022-08-03T03:44:30.781Z,26.80
2022-08-03T03:47:37.713Z,28.00
2022-08-03T03:50:42.687Z,27.00
2022-08-03T03:53:57.634Z,28.00
2022-08-03T03:57:01.070Z,27.80
2022-08-03T04:00:06.066Z,28.00
2022-08-03T04:03:12.272Z,30.00
2022-08-03T04:06:40.305Z,28.50
2022-08-03T04:10:14.127Z,28.00
2022-08-03T04:13:19.567Z,29.00
2022-08-03T04:16:26.566Z,27.20
2022-08-03T04:19:35.779Z,28.60
2022-08-03T04:22:43.159Z,27.50
2022-08-03T04:25:49.730Z,27.00
2022-08-03T04:28:54.545Z,28.50
2022-08-03T04:31:59.940Z,26.20
2022-08-03T04:35:03.293Z,27.00
2022-08-03T04:38:09.126Z,26.25
2022-08-03T04:41:14.177Z,26.00
2022-08-03T04:44:20.909Z,27.00
2022-08-03T04:47:34.409Z,27.40
2022-08-03T04:50:37.897Z,24.00
2022-08-03T04:53:44.131Z,25.40
2022-08-03T04:56:48.372Z,25.40
2022-08-03T05:00:01.455Z,25.60
2022-08-03T05:03:19.503Z,26.60
2022-08-03T05:06:27.849Z,24.00
2022-08-03T05:09:49.848Z,26.20
2022-08-03T05:12:54.194Z,24.75
2022-08-03T05:15:57.509Z,26.00
2022-08-03T05:19:00.823Z,24.00
2022-08-03T05:22:04.467Z,24.60
2022-08-03T05:25:09.545Z,25.25
2022-08-03T05:28:21.040Z,25.40
2022-08-03T05:31:24.284Z,23.75
2022-08-03T05:34:27.578Z,24.00
2022-08-03T05:37:30.880Z,25.20
2022-08-03T05:40:35.625Z,24.00
2022-08-03T05:43:40.505Z,25.25
2022-08-03T05:46:43.923Z,24.00
2022-08-03T05:49:47.401Z,23.80
2022-08-03T05:52:50.667Z,23.25
2022-08-03T05:56:02.096Z,22.67
2022-08-03T05:59:37.715Z,25.00
2022-08-03T06:02:40.418Z,21.40
2022-08-03T06:05:55.496Z,23.60
2022-08-03T06:09:04.300Z,24.00
2022-08-03T06:12:13.964Z,24.00
2022-08-03T06:15:18.885Z,23.00
2022-08-03T06:18:22.548Z,20.20
2022-08-03T06:21:25.802Z,23.00
2022-08-03T06:24:30.519Z,23.00
2022-08-03T06:27:37.032Z,24.00
2022-08-03T06:30:41.397Z,23.00
2022-08-03T06:34:30.060Z,24.40
2022-08-03T06:37:08.346Z,24.00
2022-08-03T06:40:13.922Z,24.00
2022-08-03T06:43:19.672Z,22.40
2022-08-03T06:46:23.494Z,22.00
2022-08-03T06:49:26.844Z,22.00
2022-08-03T06:52:38.141Z,20.20
2022-08-03T06:55:42.412Z,21.60
2022-08-03T06:58:48.901Z,20.00
2022-08-03T07:01:52.212Z,20.00
2022-08-03T07:04:55.817Z,19.20
2022-08-03T07:07:59.360Z,21.80
2022-08-03T07:11:03.003Z,22.00
2022-08-03T07:14:09.281Z,21.80
2022-08-03T07:17:12.874Z,20.00
2022-08-03T07:20:18.250Z,21.00
2022-08-03T07:23:21.548Z,20.00
2022-08-03T07:26:24.795Z,20.00
2022-08-03T07:29:29.467Z,20.00
2022-08-03T07:32:49.864Z,21.40
2022-08-03T07:35:54.528Z,20.00
2022-08-03T07:38:58.283Z,21.40
2022-08-03T07:42:01.646Z,22.60
2022-08-03T07:45:08.263Z,22.00
2022-08-03T07:48:19.940Z,20.00
2022-08-03T07:51:23.106Z,21.00
2022-08-03T07:54:26.424Z,20.00
2022-08-03T07:57:29.691Z,21.00
2022-08-03T08:00:35.627Z,20.50
2022-08-03T08:03:52.394Z,24.00
2022-08-03T08:06:56.486Z,21.80
2022-08-03T08:10:00.042Z,20.80
2022-08-03T08:13:04.330Z,22.00
2022-08-03T08:16:09.005Z,20.00
2022-08-03T08:19:12.843Z,22.00
2022-08-03T08:22:16.451Z,23.00
2022-08-03T08:25:21.782Z,17.50
2022-08-03T08:28:31.598Z,20.00
2022-08-03T08:31:37.790Z,20.00
2022-08-03T08:34:41.104Z,20.00
2022-08-03T08:37:50.666Z,21.00
2022-08-03T08:40:57.212Z,20.00
2022-08-03T08:44:00.755Z,19.00
2022-08-03T08:47:05.509Z,18.60
2022-08-03T08:50:14.828Z,18.60
2022-08-03T08:53:33.254Z,19.75
2022-08-03T08:56:38.650Z,18.00
2022-08-03T08:59:48.779Z,14.80
2022-08-03T09:02:54.833Z,17.00
2022-08-03T09:05:58.704Z,17.00
2022-08-03T09:09:02.020Z,18.00
2022-08-03T09:12:37.186Z,19.40
2022-08-03T09:15:33.201Z,19.40
2022-08-03T09:18:38.157Z,18.00
2022-08-03T09:21:41.740Z,17.60
2022-08-03T09:25:21.489Z,18.60
2022-08-03T09:28:59.964Z,18.20
2022-08-03T09:31:45.887Z,19.00
2022-08-03T09:34:55.315Z,17.75
2022-08-03T09:38:14.179Z,14.60
2022-08-03T09:41:19.918Z,18.00
2022-08-03T09:44:35.638Z,17.75
2022-08-03T09:47:44.838Z,18.00
2022-08-03T09:50:57.156Z,18.00
2022-08-03T09:54:27.564Z,18.60
2022-08-03T09:57:32.254Z,17.75
2022-08-03T10:00:55.236Z,17.50
2022-08-03T10:04:04.417Z,16.50
2022-08-03T10:07:11.593Z,14.00
2022-08-03T10:10:30.318Z,11.00
2022-08-03T10:13:35.428Z,17.00
2022-08-03T10:16:40.674Z,14.50
2022-08-03T10:19:44.413Z,15.40
2022-08-03T10:22:49.899Z,9.80
2022-08-03T10:25:59.349Z,12.00
2022-08-03T10:29:12.829Z,12.40
2022-08-03T10:32:21.617Z,12.40
2022-08-03T10:35:26.848Z,12.00
2022-08-03T10:38:38.629Z,13.25
2022-08-03T10:41:44.780Z,11.75
2022-08-03T10:44:51.924Z,12.00
2022-08-03T10:47:57.538Z,12.00
2022-08-03T10:51:01.032Z,12.00
2022-08-03T10:54:05.727Z,11.00
2022-08-03T10:57:49.736Z,13.25
2022-08-03T11:00:53.566Z,11.60
2022-08-03T11:04:17.104Z,11.00
2022-08-03T11:07:22.945Z,10.40
2022-08-03T11:10:33.832Z,10.20
2022-08-03T11:13:37.114Z,10.75
2022-08-03T11:16:42.966Z,11.00
2022-08-03T11:19:57.383Z,11.00
2022-08-03T11:23:02.051Z,11.50
2022-08-03T11:26:17.389Z,12.00
2022-08-03T11:29:31.843Z,13.50
2022-08-03T11:33:05.197Z,12.00
2022-08-03T11:36:08.556Z,11.25
2022-08-03T11:39:16.816Z,11.80
2022-08-03T11:42:47.397Z,10.00
2022-08-03T11:46:00.095Z,11.20
2022-08-03T11:49:10.476Z,11.00
2022-08-03T11:52:14.415Z,11.00
2022-08-03T11:55:26.778Z,11.00
2022-08-03T11:59:17.182Z,11.75
2022-08-03T12:02:07.766Z,12.20
2022-08-03T12:05:11.091Z,13.40
2022-08-03T12:08:16.527Z,12.80
2022-08-03T12:11:20.050Z,10.00
2022-08-03T12:14:48.890Z,9.20
2022-08-03T12:17:53.686Z,11.00
2022-08-03T12:21:06.589Z,11.00
2022-08-03T12:24:10.992Z,10.80
2022-08-03T12:27:14.585Z,11.50
2022-08-03T12:30:20.450Z,11.00
2022-08-03T12:33:25.740Z,9.00
2022-08-03T12:36:32.252Z,9.00
2022-08-03T12:39:35.577Z,15.60
2022-08-03T12:42:40.789Z,11.40
2022-08-03T12:45:45.477Z,11.00
2022-08-03T12:49:09.012Z,11.00
2022-08-03T12:52:12.551Z,11.80
2022-08-03T12:55:20.977Z,10.20
2022-08-03T12:58:35.407Z,11.00
2022-08-03T13:01:55.227Z,12.00
2022-08-03T13:05:00.291Z,11.75
2022-08-03T13:08:03.604Z,11.00
2022-08-03T13:11:22.997Z,12.00
2022-08-03T13:14:48.859Z,11.00
2022-08-03T13:17:54.029Z,11.20
2022-08-03T13:20:57.347Z,12.00
2022-08-03T13:24:00.650Z,13.00
2022-08-03T13:28:01.199Z,11.75
2022-08-03T13:30:30.537Z,12.00
2022-08-03T13:33:35.716Z,11.00
2022-08-03T13:37:07.436Z,11.00
2022-08-03T13:40:07.099Z,10.00
2022-08-03T13:43:13.265Z,13.00
2022-08-03T13:46:16.567Z,12.00
2022-08-03T13:49:21.547Z,13.00
2022-08-03T13:52:25.044Z,13.00
2022-08-03T13:55:28.538Z,12.60
2022-08-03T13:58:31.693Z,11.00
2022-08-03T14:01:54.075Z,13.00
2022-08-03T14:04:59.596Z,10.20
2022-08-03T14:08:05.384Z,16.50
2022-08-03T14:11:09.074Z,12.40
2022-08-03T14:14:12.812Z,14.00
2022-08-03T14:17:16.586Z,12.20
2022-08-03T14:20:36.336Z,10.00
2022-08-03T14:23:42.350Z,10.00
2022-08-03T14:26:48.314Z,11.00
2022-08-03T14:29:51.595Z,12.00
2022-08-03T14:33:00.424Z,12.00
2022-08-03T14:36:06.213Z,10.80
2022-08-03T14:39:09.958Z,10.00
2022-08-03T14:42:13.668Z,11.00
2022-08-03T14:45:20.439Z,12.00
2022-08-03T14:50:29.052Z,11.25
2022-08-03T14:51:54.014Z,11.60
2022-08-03T14:54:57.692Z,12.00
2022-08-03T14:58:05.639Z,15.67
2022-08-03T15:02:06.488Z,10.00
2022-08-03T15:04:46.655Z,11.00
2022-08-03T15:07:51.412Z,13.80
2022-08-03T15:10:57.623Z,11.00
2022-08-03T15:14:00.871Z,12.00
2022-08-03T15:17:04.173Z,14.00
2022-08-03T15:20:28.905Z,10.00
2022-08-03T15:23:33.728Z,11.00
2022-08-03T15:26:41.382Z,13.40
2022-08-03T15:30:05.427Z,12.00
2022-08-03T15:33:09.517Z,12.00
2022-08-03T15:36:12.832Z,10.80
2022-08-03T15:39:17.905Z,10.60
2022-08-03T15:42:21.247Z,13.25
2022-08-03T15:45:36.281Z,13.40
2022-08-03T15:48:40.363Z,12.25
2022-08-03T15:51:43.730Z,11.00
2022-08-03T15:54:48.436Z,12.00
2022-08-03T15:59:09.944Z,11.00
2022-08-03T16:01:19.447Z,12.80
2022-08-03T16:04:23.339Z,12.00
2022-08-03T16:07:40.751Z,10.80
2022-08-03T16:11:03.273Z,10.40
2022-08-03T16:14:31.043Z,11.00
2022-08-03T16:17:29.955Z,12.00
2022-08-03T16:20:34.421Z,13.50
2022-08-03T16:23:39.897Z,11.60
2022-08-03T16:26:48.269Z,12.00
2022-08-03T16:29:51.510Z,12.00
2022-08-03T16:32:54.788Z,12.00
2022-08-03T16:35:58.426Z,13.00
2022-08-03T16:39:01.843Z,12.00
2022-08-03T16:42:07.156Z,11.25
2022-08-03T16:45:11.820Z,12.75
2022-08-03T16:48:15.440Z,14.00
2022-08-03T16:51:20.869Z,12.60
2022-08-03T16:54:27.936Z,12.00
2022-08-03T16:57:59.783Z,14.00
2022-08-03T17:00:57.252Z,13.00
2022-08-03T17:04:04.970Z,12.60
2022-08-03T17:07:09.403Z,13.60
2022-08-03T17:10:16.171Z,13.00
2022-08-03T17:13:27.654Z,10.00
2022-08-03T17:16:52.477Z,12.00
2022-08-03T17:19:58.786Z,12.00
2022-08-03T17:23:34.135Z,12.80
2022-08-03T17:26:43.444Z,13.00
2022-08-03T17:29:56.960Z,13.00
2022-08-03T17:33:00.263Z,12.00
2022-08-03T17:36:03.490Z,13.50
2022-08-03T17:39:08.449Z,12.00
2022-08-03T17:42:24.071Z,13.00
2022-08-03T17:45:52.047Z,12.20
2022-08-03T17:48:57.008Z,14.00
2022-08-03T17:52:03.959Z,15.00
2022-08-03T17:55:57.138Z,13.00
2022-08-03T17:58:56.208Z,15.25
2022-08-03T18:02:30.430Z,14.00
2022-08-03T18:06:12.054Z,16.40
2022-08-03T18:09:05.223Z,14.00
2022-08-03T18:12:28.278Z,14.00
2022-08-03T18:15:38.651Z,17.00
2022-08-03T18:18:48.666Z,17.60
2022-08-03T18:22:03.702Z,14.00
2022-08-03T18:25:10.056Z,17.50
2022-08-03T18:28:18.537Z,18.40
2022-08-03T18:31:33.097Z,17.40
2022-08-03T18:34:53.747Z,18.40
2022-08-03T18:38:01.064Z,20.00
2022-08-03T18:41:12.684Z,17.00
2022-08-03T18:44:37.629Z,17.50
2022-08-03T18:47:55.953Z,20.00
2022-08-03T18:51:07.452Z,20.00
2022-08-03T18:54:45.759Z,20.00
2022-08-03T18:57:46.562Z,20.00
2022-08-03T19:00:59.673Z,21.00
2022-08-03T19:04:10.429Z,21.00
2022-08-03T19:07:22.251Z,20.40
2022-08-03T19:10:30.653Z,22.00
2022-08-03T19:13:50.333Z,20.00
2022-08-03T19:16:58.663Z,21.00
2022-08-03T19:20:06.642Z,20.75
2022-08-03T19:23:13.293Z,21.50
2022-08-03T19:26:30.025Z,23.60
2022-08-03T19:30:00.486Z,23.80
2022-08-03T19:33:01.700Z,23.00
2022-08-03T19:36:10.564Z,23.00
2022-08-03T19:39:15.518Z,23.00
2022-08-03T19:42:26.102Z,24.00
2022-08-03T19:45:52.706Z,22.00
2022-08-03T19:49:02.170Z,21.20
2022-08-03T19:52:06.930Z,23.00
2022-08-03T19:55:12.782Z,22.00
2022-08-03T19:58:17.719Z,23.00
2022-08-03T20:01:31.904Z,22.00
2022-08-03T20:04:54.655Z,22.00
2022-08-03T20:08:02.687Z,22.00
2022-08-03T20:11:07.402Z,22.00
2022-08-03T20:14:13.211Z,23.00
2022-08-03T20:17:55.584Z,23.00
2022-08-03T20:20:51.454Z,22.00
2022-08-03T20:24:02.758Z,22.40
2022-08-03T20:27:30.229Z,22.00
2022-08-03T20:30:33.848Z,21.50
2022-08-03T20:33:48.446Z,22.00
2022-08-03T20:36:52.214Z,24.00
2022-08-03T20:39:55.491Z,23.00
2022-08-03T20:43:01.449Z,23.00
2022-08-03T20:46:30.861Z,22.00
2022-08-03T20:49:29.253Z,22.00
2022-08-03T20:52:50.478Z,22.40
2022-08-03T20:56:02.185Z,22.00
2022-08-03T20:59:14.938Z,22.00
2022-08-03T21:02:19.270Z,20.00
2022-08-03T21:05:31.047Z,21.50
2022-08-03T21:08:52.812Z,20.00
2022-08-03T21:11:59.666Z,20.00
2022-08-03T21:15:08.571Z,22.00
2022-08-03T21:18:14.188Z,22.00
2022-08-03T21:21:20.504Z,20.00
2022-08-03T21:24:26.860Z,20.00
2022-08-03T21:27:31.933Z,20.60
2022-08-03T21:30:38.067Z,20.00
2022-08-03T21:33:41.916Z,22.00
2022-08-03T21:36:50.471Z,23.00
2022-08-03T21:39:54.961Z,24.00
2022-08-03T21:42:58.292Z,23.40
2022-08-03T21:46:04.680Z,23.50
2022-08-03T21:50:06.954Z,25.00
2022-08-03T21:52:36.813Z,26.00
2022-08-03T21:55:45.079Z,25.25
2022-08-03T21:58:51.848Z,26.00
2022-08-03T22:01:58.383Z,26.00
2022-08-03T22:05:05.119Z,24.00
2022-08-03T22:08:09.875Z,24.00
2022-08-03T22:11:13.205Z,26.00
2022-08-03T22:14:16.733Z,24.00
2022-08-03T22:17:53.793Z,23.00
2022-08-03T22:20:49.973Z,26.00
2022-08-03T22:23:54.874Z,23.60
2022-08-03T22:27:15.984Z,25.80
2022-08-03T22:30:20.415Z,24.50
2022-08-03T22:33:27.979Z,24.00
2022-08-03T22:36:31.739Z,26.00
2022-08-03T22:39:36.581Z,27.00
2022-08-03T22:42:42.219Z,25.75
2022-08-03T22:46:09.554Z,26.80
2022-08-03T22:49:12.519Z,27.00
2022-08-03T22:52:16.847Z,24.00
2022-08-03T22:55:24.841Z,28.00
2022-08-03T22:58:28.422Z,26.00
2022-08-03T23:01:38.363Z,27.00
2022-08-03T23:04:45.740Z,26.00
2022-08-03T23:07:52.205Z,25.20
2022-08-03T23:11:01.676Z,28.00
2022-08-03T23:14:10.096Z,27.00
2022-08-03T23:17:15.681Z,27.00
2022-08-03T23:20:21.145Z,28.00
2022-08-03T23:23:44.163Z,28.00
2022-08-03T23:26:49.154Z,27.00
2022-08-03T23:29:55.066Z,26.00
2022-08-03T23:33:02.237Z,26.60
2022-08-03T23:36:20.006Z,26.50
2022-08-03T23:39:35.123Z,28.00
2022-08-03T23:42:39.663Z,27.00
2022-08-03T23:45:45.717Z,28.00
2022-08-03T23:48:49.028Z,28.00
2022-08-03T23:52:02.978Z,26.40
2022-08-03T23:55:20.222Z,28.00
2022-08-03T23:58:46.585Z,29.00
